Welcome to the updated website with new and more accurate equipment. Established 2007


Active alerts


No alerts

Mount Mesnard more information Mount Mesnard


Lower Harbor more information Lower Harbor


Visit our other weather sites:

Template documentation
and downloads

And another site


CBI


Weather Underground History page Text

Daily Summary for June 28, 2017 Units:  English    Metric   Both
« Previous Day
Next Day »
Daily Weekly Monthly Yearly Custom
  Current: High: Low: Average:
Temperature: 66.8 °F 72.3 °F 55.6 °F 64.6 °F
Dew Point: 62.0 °F 62.0 °F 50.0 °F 55.7 °F
Humidity: 83 % 85 % 56 % 74 %
Wind Speed: 0.0 mph 8.0 mph 0.0 mph 1.6 mph
Wind Gust: 4.0 mph 18.0 mph - -
Wind:Calm - - South
Pressure: 29.64 in 29.87 in 29.64 in -
Precipitation: 0.00 in      
Historical Graphs
 
 
Tabular Data for June 28, 2017
Time Temperature Dew Point Pressure Wind Wind Speed Wind Gust Humidity Rainfall Rate (Hourly)
00:10 56.7 °F 52.0 °F 29.86 in Calm   3.0 mph 85 % 0.00 in
00:25 56.9 °F 53.0 °F 29.87 in Calm   1.0 mph 85 % 0.00 in
00:40 56.7 °F 52.0 °F 29.87 in Calm   2.0 mph 84 % 0.00 in
00:55 56.9 °F 52.0 °F 29.86 in South 1.0 mph 2.0 mph 84 % 0.00 in
01:10 58.5 °F 51.0 °F 29.87 in SSW 1.0 mph 3.0 mph 77 % 0.00 in
01:25 59.8 °F 54.0 °F 29.87 in Calm   2.0 mph 80 % 0.00 in
01:40 59.5 °F 53.0 °F 29.87 in Calm   1.0 mph 78 % 0.00 in
01:56 58.9 °F 52.0 °F 29.86 in Calm     77 % 0.00 in
02:11 58.2 °F 51.0 °F 29.86 in Calm   1.0 mph 78 % 0.00 in
02:26 57.8 °F 52.0 °F 29.86 in Calm   4.0 mph 81 % 0.00 in
02:41 58.0 °F 53.0 °F 29.86 in Calm   1.0 mph 82 % 0.00 in
02:56 58.3 °F 52.0 °F 29.87 in South 1.0 mph 1.0 mph 79 % 0.00 in
03:11 58.9 °F 52.0 °F 29.87 in Calm   1.0 mph 78 % 0.00 in
03:26 58.8 °F 52.0 °F 29.86 in Calm   1.0 mph 79 % 0.00 in
03:41 58.5 °F 52.0 °F 29.86 in Calm     79 % 0.00 in
03:56 58.4 °F 52.0 °F 29.85 in Calm   1.0 mph 80 % 0.00 in
04:11 58.7 °F 53.0 °F 29.85 in SW 1.0 mph 2.0 mph 80 % 0.00 in
04:26 58.6 °F 52.0 °F 29.84 in Calm   2.0 mph 80 % 0.00 in
04:41 58.2 °F 51.0 °F 29.83 in Calm   1.0 mph 78 % 0.00 in
04:56 57.5 °F 51.0 °F 29.82 in Calm     80 % 0.00 in
05:11 56.9 °F 51.0 °F 29.82 in Calm   1.0 mph 81 % 0.00 in
05:26 56.4 °F 51.0 °F 29.82 in Calm   1.0 mph 82 % 0.00 in
05:41 56.0 °F 51.0 °F 29.83 in Calm   4.0 mph 82 % 0.00 in
05:56 55.7 °F 51.0 °F 29.83 in Calm   1.0 mph 84 % 0.00 in
06:11 55.6 °F 51.0 °F 29.85 in Calm   3.0 mph 83 % 0.00 in
06:26 57.0 °F 51.0 °F 29.85 in SSW 1.0 mph 5.0 mph 80 % 0.00 in
06:41 59.4 °F 51.0 °F 29.86 in SSW 3.0 mph 10.0 mph 73 % 0.00 in
06:56 61.6 °F 50.0 °F 29.86 in SSW 6.0 mph 9.0 mph 67 % 0.00 in
07:11 62.0 °F 51.0 °F 29.86 in SSE 2.0 mph 8.0 mph 67 % 0.00 in
07:26 62.1 °F 51.0 °F 29.85 in Calm   7.0 mph 68 % 0.00 in
07:41 62.3 °F 52.0 °F 29.84 in SE 3.0 mph 9.0 mph 68 % 0.00 in
07:56 62.5 °F 54.0 °F 29.84 in Calm   3.0 mph 73 % 0.00 in
08:11 62.6 °F 55.0 °F 29.83 in South 1.0 mph 5.0 mph 75 % 0.00 in
08:26 63.1 °F 52.0 °F 29.82 in SSE 1.0 mph 4.0 mph 68 % 0.00 in
08:41 64.4 °F 52.0 °F 29.82 in SSE 2.0 mph 6.0 mph 65 % 0.00 in
08:56 64.7 °F 54.0 °F 29.82 in SSW 2.0 mph 6.0 mph 68 % 0.00 in
09:11 65.8 °F 54.0 °F 29.82 in SSW 4.0 mph 5.0 mph 67 % 0.00 in
09:26 66.6 °F 55.0 °F 29.83 in SSE 2.0 mph 7.0 mph 66 % 0.00 in
09:41 67.9 °F 53.0 °F 29.82 in SSE 2.0 mph 5.0 mph 60 % 0.00 in
09:56 69.0 °F 54.0 °F 29.82 in SE 3.0 mph 14.0 mph 60 % 0.00 in
10:12 69.7 °F 55.0 °F 29.81 in SSE 1.0 mph 7.0 mph 59 % 0.00 in
10:27 70.1 °F 54.0 °F 29.81 in South 2.0 mph 9.0 mph 58 % 0.00 in
10:42 70.1 °F 55.0 °F 29.80 in Calm   18.0 mph 60 % 0.00 in
10:57 70.4 °F 56.0 °F 29.79 in SSE 5.0 mph 9.0 mph 60 % 0.00 in
11:12 70.8 °F 56.0 °F 29.78 in South 8.0 mph 8.0 mph 60 % 0.00 in
11:27 71.7 °F 55.0 °F 29.78 in SW 2.0 mph 17.0 mph 56 % 0.00 in
11:42 71.3 °F 57.0 °F 29.77 in SSW 4.0 mph 9.0 mph 60 % 0.00 in
11:57 71.3 °F 55.0 °F 29.76 in SW 6.0 mph 15.0 mph 56 % 0.00 in
12:12 71.4 °F 56.0 °F 29.75 in South 3.0 mph 10.0 mph 58 % 0.00 in
12:27 71.8 °F 55.0 °F 29.74 in South 2.0 mph 12.0 mph 56 % 0.00 in
12:42 72.1 °F 57.0 °F 29.73 in ENE 4.0 mph 10.0 mph 59 % 0.00 in
12:57 72.3 °F 57.0 °F 29.72 in SW 6.0 mph 11.0 mph 58 % 0.00 in
13:12 72.2 °F 58.0 °F 29.71 in South 3.0 mph 8.0 mph 61 % 0.00 in
13:27 72.1 °F 58.0 °F 29.71 in SSE 1.0 mph 12.0 mph 62 % 0.00 in
13:42 72.1 °F 59.0 °F 29.70 in SSE 1.0 mph 9.0 mph 63 % 0.00 in
13:57 71.7 °F 59.0 °F 29.70 in SSE 3.0 mph 9.0 mph 65 % 0.00 in
14:12 70.6 °F 59.0 °F 29.71 in SE 2.0 mph 11.0 mph 67 % 0.00 in
14:27 70.0 °F 59.0 °F 29.72 in SW 4.0 mph 14.0 mph 69 % 0.00 in
14:42 69.9 °F 60.0 °F 29.73 in West 2.0 mph 13.0 mph 71 % 0.00 in
14:57 69.2 °F 60.0 °F 29.73 in South 4.0 mph 13.0 mph 73 % 0.00 in
15:12 68.5 °F 59.0 °F 29.72 in South 2.0 mph 12.0 mph 72 % 0.00 in
15:27 67.9 °F 60.0 °F 29.71 in SSE 2.0 mph 11.0 mph 76 % 0.00 in
15:42 68.3 °F 61.0 °F 29.71 in SSE 2.0 mph 8.0 mph 78 % 0.00 in
15:57 68.2 °F 62.0 °F 29.71 in Calm   6.0 mph 81 % 0.00 in
16:12 68.4 °F 62.0 °F 29.70 in South 6.0 mph 6.0 mph 80 % 0.00 in
16:27 68.7 °F 62.0 °F 29.70 in Calm   4.0 mph 79 % 0.00 in
16:42 68.4 °F 62.0 °F 29.70 in Calm   8.0 mph 79 % 0.00 in
16:57 67.6 °F 61.0 °F 29.69 in South 2.0 mph 8.0 mph 80 % 0.00 in
17:12 67.1 °F 61.0 °F 29.69 in South 2.0 mph 7.0 mph 82 % 0.00 in
17:27 66.8 °F 62.0 °F 29.68 in South 1.0 mph 7.0 mph 83 % 0.00 in
17:42 66.7 °F 62.0 °F 29.68 in SSE 3.0 mph 4.0 mph 84 % 0.00 in
17:57 67.0 °F 62.0 °F 29.68 in SE 1.0 mph 4.0 mph 84 % 0.00 in
18:12 67.7 °F 62.0 °F 29.67 in Calm   5.0 mph 83 % 0.00 in
18:27 67.8 °F 62.0 °F 29.67 in SSE 2.0 mph 8.0 mph 81 % 0.00 in
18:43 67.7 °F 62.0 °F 29.66 in SW 1.0 mph 5.0 mph 82 % 0.00 in
18:57 67.6 °F 62.0 °F 29.65 in SSE 4.0 mph 8.0 mph 81 % 0.00 in
19:12 67.4 °F 61.0 °F 29.65 in Calm   5.0 mph 81 % 0.00 in
19:28 67.1 °F 62.0 °F 29.64 in Calm   7.0 mph 83 % 0.00 in
19:43 67.0 °F 62.0 °F 29.64 in SSW 1.0 mph 7.0 mph 83 % 0.00 in
19:58 66.8 °F 62.0 °F 29.64 in Calm   4.0 mph 83 % 0.00 in
Big Bay Weather
Compliments of Weather Underground - 1 mb

Script developed by  Jim McMurry - jmcmurry@mwt.net Adapted for the template by  Wim van der Kuil - Leuven-Template.eu

You find our weather info also at:

Weather Underground

Midwestern Weather Network

WeatherlinkIP

Citizen Weather Observer Program (CWOP)

Equipment we use:

Weather-station
Davis VP2

Weather-program
Davis Weatherlink.Com

Davis VP2

Davis Weatherlink.Com